Time;durP1;ratioP1;P1;durP2;ratioP2;P2;SDS_P1;SDS_P2;PMS_P1;PMS_P2;Temp;Humidity;BMP_temperature;BMP_pressure;BME280_temperature;BME280_humidity;BME280_pressure;Samples;Min_cycle;Max_cycle;Signal;HPM_P1;HPM_P2
2023/06/23 00:00:11;;;;;;;14.98;13.68;;;;;;;-144.30;81.81;84339.00;5112425;28;20199;-61
2023/06/23 00:02:39;;;;;;;14.75;13.35;;;;;;;-144.30;81.66;84362.84;5112947;28;20612;-65
2023/06/23 00:05:07;;;;;;;13.93;12.82;;;;;;;-144.30;81.43;84362.84;5112757;28;20259;-65
2023/06/23 00:07:34;;;;;;;14.48;13.00;;;;;;;-144.30;80.65;84251.56;5112489;28;20194;-62
2023/06/23 00:10:02;;;;;;;14.40;13.18;;;;;;;-144.30;79.97;84339.00;5112314;28;20227;-62
2023/06/23 00:12:29;;;;;;;14.32;13.10;;;;;;;-144.30;80.11;84323.13;5112413;28;20259;-64
2023/06/23 00:14:58;;;;;;;14.02;12.93;;;;;;;-144.30;80.38;84335.03;5112713;28;20210;-63
2023/06/23 00:17:24;;;;;;;13.35;12.27;;;;;;;-144.30;80.66;84362.84;5112314;28;20201;-64
2023/06/23 00:19:51;;;;;;;14.45;13.18;;;;;;;-144.30;80.87;84362.84;5112340;28;20191;-64
2023/06/23 00:22:18;;;;;;;13.95;12.70;;;;;;;-144.30;81.21;84311.19;5112073;28;20221;-63
2023/06/23 00:24:45;;;;;;;14.75;13.52;;;;;;;-144.30;81.00;84346.97;5112207;28;20191;-65
2023/06/23 00:27:12;;;;;;;14.13;12.93;;;;;;;-144.30;80.97;84342.97;5111900;28;20198;-65
2023/06/23 00:29:39;;;;;;;14.63;13.07;;;;;;;-144.30;80.22;84346.97;5112043;28;20214;-63
2023/06/23 00:32:08;;;;;;;13.77;12.68;;;;;;;-144.30;79.53;84323.13;5112089;28;20600;-64
2023/06/23 00:34:35;;;;;;;13.65;12.38;;;;;;;-144.30;80.07;84376.78;5112037;28;20222;-64
2023/06/23 00:37:02;;;;;;;15.02;13.70;;;;;;;-144.30;80.09;84368.81;5112146;28;20197;-64
2023/06/23 00:39:30;;;;;;;14.15;12.95;;;;;;;-144.30;80.72;84368.81;5111890;28;20286;-62
2023/06/23 00:41:57;;;;;;;14.48;13.27;;;;;;;-144.30;80.92;84352.91;5111947;28;20202;-65
2023/06/23 00:44:24;;;;;;;14.75;13.30;;;;;;;-144.30;80.38;84374.78;5111665;28;20203;-65
2023/06/23 00:46:51;;;;;;;14.55;12.95;;;;;;;-144.30;80.31;84327.09;5111191;28;20203;-63
2023/06/23 00:49:19;;;;;;;15.25;13.65;;;;;;;-144.30;80.12;84333.06;5111316;28;20218;-64
2023/06/23 00:51:46;;;;;;;14.88;13.35;;;;;;;-144.30;79.43;84311.19;5111561;28;20674;-64
2023/06/23 00:54:14;;;;;;;16.30;14.48;;;;;;;-144.30;78.70;84317.16;5111492;28;20671;-64
2023/06/23 00:56:41;;;;;;;13.48;12.27;;;;;;;-144.30;77.21;84267.47;5111581;28;20213;-63
2023/06/23 00:59:08;;;;;;;16.80;13.35;;;;;;;-144.30;76.72;84243.63;5111576;28;20395;-62
2023/06/23 01:01:36;;;;;;;13.27;11.98;;;;;;;-144.30;76.66;84285.34;5111558;28;20190;-63
2023/06/23 01:04:04;;;;;;;13.98;12.57;;;;;;;-144.30;76.23;84307.22;5111565;28;20190;-62
2023/06/23 01:06:41;;;;;;;14.07;12.93;;;;;;;-144.30;76.40;84329.06;5111877;28;20221;-64
2023/06/23 01:09:14;;;;;;;13.60;12.43;;;;;;;-144.30;76.51;84289.31;5111515;28;20666;-63
2023/06/23 01:11:49;;;;;;;13.77;12.68;;;;;;;-144.30;76.48;84315.16;5111409;28;20194;-63
2023/06/23 01:14:23;;;;;;;12.52;11.50;;;;;;;-144.30;76.39;84315.16;5111197;28;20198;-63
2023/06/23 01:16:58;;;;;;;14.00;11.38;;;;;;;-144.30;76.54;84283.38;5111209;28;20202;-62
2023/06/23 01:19:47;;;;;;;14.85;12.40;;;;;;;-144.30;76.80;84319.13;5110934;28;20606;-62
2023/06/23 01:22:26;;;;;;;13.50;12.48;;;;;;;-144.30;77.52;84364.84;5110940;28;20209;-63
2023/06/23 01:25:06;;;;;;;13.73;12.52;;;;;;;-144.30;78.28;84354.91;5111092;28;20274;-62
2023/06/23 01:27:58;;;;;;;13.15;12.05;;;;;;;-144.30;79.55;84376.78;5110961;28;20198;-63
2023/06/23 01:30:31;;;;;;;13.65;12.43;;;;;;;-144.30;80.59;84406.59;5110732;28;20656;-63
2023/06/23 01:33:05;;;;;;;12.98;11.80;;;;;;;-144.30;81.51;84428.44;5110956;28;20259;-63
2023/06/23 01:35:37;;;;;;;12.93;12.02;;;;;;;-144.30;82.40;84442.34;5110732;28;20321;-62
2023/06/23 01:38:11;;;;;;;14.60;13.38;;;;;;;-144.30;83.15;84438.38;5111094;28;20587;-62
2023/06/23 01:40:40;;;;;;;15.05;13.80;;;;;;;-144.30;84.21;84458.25;5110779;28;20201;-63
2023/06/23 01:43:09;;;;;;;16.45;14.80;;;;;;;-144.30;84.70;84432.41;5110675;28;20271;-63
2023/06/23 01:45:39;;;;;;;16.77;15.27;;;;;;;-144.30;86.36;84398.63;5110836;28;20195;-63
2023/06/23 01:48:12;;;;;;;17.05;15.55;;;;;;;-144.30;87.48;84476.13;5110524;28;20750;-62
2023/06/23 01:50:42;;;;;;;17.88;16.15;;;;;;;-144.30;87.90;84482.09;5110344;28;20226;-63
2023/06/23 01:53:11;;;;;;;17.58;16.17;;;;;;;-144.30;88.65;84482.09;5110568;28;20285;-63
2023/06/23 01:55:41;;;;;;;17.83;16.23;;;;;;;-144.30;89.56;84511.91;5110452;28;20195;-61
2023/06/23 01:58:09;;;;;;;18.92;17.02;;;;;;;-144.30;89.66;84480.13;5110229;28;20591;-62
2023/06/23 02:00:39;;;;;;;20.23;16.88;;;;;;;-144.30;88.91;84480.13;5109744;28;20190;-63
2023/06/23 02:03:08;;;;;;;18.92;16.77;;;;;;;-144.30;88.90;84543.72;5110202;28;20201;-63
2023/06/23 02:05:37;;;;;;;19.00;17.08;;;;;;;-144.30;89.54;84537.75;5110400;28;20200;-64
2023/06/23 02:08:05;;;;;;;21.45;17.52;;;;;;;-144.30;89.78;84513.91;5110308;28;20213;-64
2023/06/23 02:10:33;;;;;;;20.05;17.90;;;;;;;-144.30;90.34;84567.56;5110110;28;20676;-64
2023/06/23 02:13:01;;;;;;;19.52;17.77;;;;;;;-144.30;90.46;84555.63;5110200;28;20198;-64
2023/06/23 02:15:29;;;;;;;19.38;17.50;;;;;;;-144.30;90.85;84549.69;5109912;28;20198;-62
2023/06/23 02:17:59;;;;;;;21.48;17.90;;;;;;;-144.30;90.75;84561.59;5110124;28;20194;-65
2023/06/23 02:20:29;;;;;;;19.52;17.45;;;;;;;-144.30;90.73;84527.81;5109694;28;20294;-64
2023/06/23 02:22:57;;;;;;;19.10;17.42;;;;;;;-144.30;90.90;84553.66;5109912;28;20194;-62
2023/06/23 02:25:26;;;;;;;20.50;18.42;;;;;;;-144.30;91.12;84537.75;5109591;28;20201;-62
2023/06/23 02:27:54;;;;;;;26.90;18.73;;;;;;;-144.30;92.05;84575.50;5110278;28;20197;-64
2023/06/23 02:30:21;;;;;;;20.67;18.30;;;;;;;-144.30;92.78;84541.72;5109544;28;20229;-64
2023/06/23 02:32:48;;;;;;;20.75;18.67;;;;;;;-144.30;92.97;84555.63;5109984;28;20194;-64
2023/06/23 02:35:17;;;;;;;21.05;18.65;;;;;;;-144.30;93.52;84537.75;5109645;28;20264;-63
2023/06/23 02:37:50;;;;;;;21.30;19.10;;;;;;;-144.30;94.35;84597.38;5109747;28;20194;-62
2023/06/23 02:40:19;;;;;;;26.00;19.40;;;;;;;-144.30;94.75;84605.31;5109593;28;20631;-62
2023/06/23 02:43:01;;;;;;;20.90;18.70;;;;;;;-144.30;94.34;84589.41;5110017;28;20658;-60
2023/06/23 02:45:31;;;;;;;21.55;19.33;;;;;;;-144.30;94.02;84585.44;5109589;28;20191;-61
2023/06/23 02:47:59;;;;;;;22.63;20.33;;;;;;;-144.30;94.19;84579.50;5109879;28;20198;-62
2023/06/23 02:50:32;;;;;;;22.63;19.17;;;;;;;-144.30;94.51;84565.56;5109293;28;20224;-64
2023/06/23 02:53:04;;;;;;;21.85;19.70;;;;;;;-144.30;94.60;84591.41;5109660;28;20277;-64
2023/06/23 02:55:35;;;;;;;22.60;20.17;;;;;;;-144.30;94.89;84601.34;5109857;28;20303;-62
2023/06/23 02:58:06;;;;;;;23.05;20.52;;;;;;;-144.30;94.57;84545.69;5109525;28;20198;-65
2023/06/23 03:00:37;;;;;;;22.80;20.48;;;;;;;-144.30;94.48;84599.34;5109695;28;20297;-62
2023/06/23 03:03:08;;;;;;;22.85;20.27;;;;;;;-144.30;93.92;84607.31;5109470;28;20205;-62
2023/06/23 03:05:36;;;;;;;22.02;19.73;;;;;;;-144.30;93.71;84583.47;5109554;28;20597;-64
2023/06/23 03:08:04;;;;;;;25.13;20.35;;;;;;;-144.30;93.99;84613.28;5109469;28;20194;-64
2023/06/23 03:10:31;;;;;;;22.38;20.15;;;;;;;-144.30;94.22;84625.19;5110485;28;20257;-64
2023/06/23 03:12:59;;;;;;;22.40;19.98;;;;;;;-144.30;94.20;84599.34;5113635;28;20194;-62
2023/06/23 03:15:27;;;;;;;22.52;20.23;;;;;;;-144.30;94.43;84561.59;5113667;28;20662;-65
2023/06/23 03:17:59;;;;;;;22.42;19.90;;;;;;;-144.30;94.56;84637.13;5105701;28;20206;-65
2023/06/23 03:20:34;;;;;;;22.35;19.92;;;;;;;-144.30;94.75;84609.31;5113084;28;20208;-65
2023/06/23 03:23:09;;;;;;;24.13;19.25;;;;;;;-144.30;94.79;84645.06;5109780;28;20190;-65
2023/06/23 03:25:39;;;;;;;22.92;20.60;;;;;;;-144.30;94.05;84579.50;5113031;28;20223;-65
2023/06/23 03:28:09;;;;;;;23.05;20.67;;;;;;;-144.30;93.39;84637.13;5112903;28;20718;-62
2023/06/23 03:30:41;;;;;;;22.67;20.20;;;;;;;-144.30;92.52;84593.41;5112922;28;20601;-65
2023/06/23 03:33:14;;;;;;;22.23;20.08;;;;;;;-144.30;91.64;84545.69;5112894;28;20248;-63
2023/06/23 03:35:43;;;;;;;20.67;18.65;;;;;;;-144.30;90.56;84565.56;5069716;28;20559;-65
2023/06/23 03:38:16;;;;;;;22.42;20.10;;;;;;;-144.30;90.30;84567.56;5072078;28;20226;-62
2023/06/23 03:40:48;;;;;;;22.33;20.20;;;;;;;-144.30;90.21;84537.75;5069992;28;20223;-65
2023/06/23 03:43:20;;;;;;;21.67;19.20;;;;;;;-144.30;90.18;84501.97;5072509;28;20604;-65
2023/06/23 03:45:51;;;;;;;24.08;19.20;;;;;;;-144.30;88.84;84247.59;5072077;28;20192;-65
2023/06/23 03:48:20;;;;;;;27.75;20.15;;;;;;;-144.30;88.09;84486.06;5071822;28;20192;-65
2023/06/23 03:50:51;;;;;;;22.30;18.55;;;;;;;-144.30;87.02;84440.38;5071621;28;20290;-64
2023/06/23 03:53:21;;;;;;;21.45;19.15;;;;;;;-144.30;85.82;84384.72;5071838;28;20626;-64
2023/06/23 03:55:51;;;;;;;22.90;20.00;;;;;;;-144.30;82.97;84215.78;5072248;28;20206;-64
2023/06/23 03:58:20;;;;;;;19.13;17.17;;;;;;;-144.30;77.21;84046.88;5071925;28;20605;-61
2023/06/23 04:00:50;;;;;;;21.35;18.30;;;;;;;-144.30;70.21;83844.19;5072094;28;20737;-61
2023/06/23 04:03:19;;;;;;;20.35;18.42;;;;;;;-144.30;66.46;83726.97;5069492;28;20291;-64
2023/06/23 04:05:49;;;;;;;21.58;19.52;;;;;;;-144.30;63.69;83609.75;5072364;28;20206;-64
2023/06/23 04:08:20;;;;;;;19.92;17.00;;;;;;;-144.30;61.79;83540.19;5056395;28;20204;-64
2023/06/23 04:10:49;;;;;;;19.23;17.63;;;;;;;-144.30;59.78;83424.97;5052109;28;20615;-64
2023/06/23 04:13:17;;;;;;;17.50;15.90;;;;;;;-144.30;57.60;83299.78;5050951;28;20200;-63
2023/06/23 04:15:47;;;;;;;17.30;15.82;;;;;;;-144.30;55.42;83158.75;5050568;28;20658;-63
2023/06/23 04:18:15;;;;;;;17.75;15.38;;;;;;;-144.30;53.35;83013.72;5050787;28;20260;-64
2023/06/23 04:20:45;;;;;;;16.13;14.50;;;;;;;-144.30;51.81;82995.84;5051280;28;20196;-64
2023/06/23 04:23:14;;;;;;;15.45;14.30;;;;;;;-144.30;50.50;82821.03;5050383;28;20211;-65
2023/06/23 04:25:48;;;;;;;15.52;14.18;;;;;;;-144.30;48.56;82711.78;5051773;28;20193;-63
2023/06/23 04:28:19;;;;;;;15.68;14.07;;;;;;;-144.30;47.18;82455.53;5051573;28;20697;-65
2023/06/23 04:30:46;;;;;;;16.20;15.00;;;;;;;-144.30;45.25;82324.44;5051434;28;20226;-63
2023/06/23 04:33:13;;;;;;;14.95;13.43;;;;;;;-144.30;43.68;82256.91;5052047;28;20315;-63
2023/06/23 04:35:40;;;;;;;15.52;14.43;;;;;;;-144.30;44.02;82378.06;5091550;28;20192;-64
2023/06/23 04:38:11;;;;;;;15.10;13.82;;;;;;;-144.30;44.57;82401.91;5092121;28;20203;-65
2023/06/23 04:40:45;;;;;;;14.18;13.20;;;;;;;-144.30;44.57;82372.13;5091723;28;20561;-64
2023/06/23 04:43:15;;;;;;;15.38;14.20;;;;;;;-144.30;44.37;82372.13;5091558;28;20195;-64
2023/06/23 04:45:47;;;;;;;15.10;13.95;;;;;;;-144.30;43.38;82282.75;5091408;28;20199;-62
2023/06/23 04:48:17;;;;;;;14.82;13.57;;;;;;;-144.30;43.19;82235.06;5091298;28;20202;-63
2023/06/23 04:50:47;;;;;;;15.27;13.93;;;;;;;-144.30;43.40;82272.81;5091367;28;20234;-63
2023/06/23 04:53:19;;;;;;;13.65;12.43;;;;;;;-144.30;43.19;82264.88;5111345;28;20209;-62
2023/06/23 04:55:54;;;;;;;15.48;13.93;;;;;;;-144.30;41.42;81998.72;5111797;28;20575;-62
2023/06/23 04:58:24;;;;;;;15.00;13.52;;;;;;;-144.30;40.30;81847.78;5111408;28;20193;-61
2023/06/23 05:00:52;;;;;;;14.20;13.20;;;;;;;-144.30;39.43;81629.34;5111587;28;20204;-63
2023/06/23 05:03:21;;;;;;;12.88;11.98;;;;;;;-144.30;37.74;81395.03;5111389;28;20296;-63
2023/06/23 05:05:52;;;;;;;14.43;12.95;;;;;;;-144.30;37.02;81363.28;5111790;28;20720;-64
2023/06/23 05:08:19;;;;;;;13.98;12.82;;;;;;;-144.30;37.35;81538.00;5111244;28;20255;-62
2023/06/23 05:10:48;;;;;;;13.40;12.30;;;;;;;-144.30;37.29;81373.19;5111538;28;20701;-62
2023/06/23 05:13:18;;;;;;;14.43;13.40;;;;;;;-144.30;37.50;81516.16;5111118;28;20194;-65
2023/06/23 05:15:47;;;;;;;21.45;19.45;;;;;;;-144.30;37.62;81605.53;5110437;28;20198;-63
2023/06/23 05:18:17;;;;;;;13.98;12.75;;;;;;;-144.30;37.76;81629.34;5110534;28;20197;-63
2023/06/23 05:20:46;;;;;;;18.35;16.58;;;;;;;-144.30;38.32;81718.72;5111110;28;20198;-63
2023/06/23 05:23:15;;;;;;;15.02;13.45;;;;;;;-144.30;37.71;81555.88;5110829;28;20212;-63
2023/06/23 05:25:45;;;;;;;14.68;13.38;;;;;;;-144.30;37.21;81391.06;5111262;28;20193;-64
2023/06/23 05:28:16;;;;;;;14.57;13.05;;;;;;;-144.30;35.56;81156.78;5110851;28;20584;-62
2023/06/23 05:30:44;;;;;;;13.77;12.77;;;;;;;-144.30;35.38;81075.38;5111120;28;20596;-63
2023/06/23 05:33:12;;;;;;;17.20;12.30;;;;;;;-144.30;34.47;80817.28;5110280;28;20186;-64
2023/06/23 05:35:42;;;;;;;14.52;13.13;;;;;;;-144.30;33.54;80666.41;5110772;27;20200;-62
2023/06/23 05:38:10;;;;;;;14.43;13.35;;;;;;;-144.30;34.18;81019.78;5111075;28;20194;-63
2023/06/23 05:40:37;;;;;;;21.60;19.63;;;;;;;-144.30;35.52;81480.44;5111143;28;20233;-63
2023/06/23 05:43:04;;;;;;;15.65;14.40;;;;;;;-144.30;36.41;81623.41;5108894;28;20198;-64
2023/06/23 05:45:33;;;;;;;13.32;12.32;;;;;;;-144.30;36.01;81442.69;5110633;28;20572;-63
2023/06/23 05:48:05;;;;;;;14.00;12.80;;;;;;;-144.30;35.28;81426.81;5110464;28;20197;-63
2023/06/23 05:50:35;;;;;;;13.13;11.95;;;;;;;-144.30;34.99;81265.97;5109372;28;20670;-64
2023/06/23 05:53:07;;;;;;;13.80;12.50;;;;;;;-144.30;35.29;81200.47;5110827;28;20205;-63
2023/06/23 05:55:38;;;;;;;13.07;12.07;;;;;;;-144.30;35.54;81406.97;5110539;28;20216;-63
2023/06/23 05:58:09;;;;;;;13.55;12.07;;;;;;;-144.30;35.47;81418.88;5110491;28;20204;-63
2023/06/23 06:00:44;;;;;;;12.85;12.02;;;;;;;-144.30;35.44;81363.28;5110238;28;20201;-63
2023/06/23 06:03:14;;;;;;;12.55;11.40;;;;;;;-144.30;34.57;81311.66;5110320;28;20684;-63
2023/06/23 06:05:46;;;;;;;13.27;12.07;;;;;;;-144.30;34.57;81291.78;5104906;28;20198;-63
2023/06/23 06:08:14;;;;;;;13.63;12.25;;;;;;;-144.30;34.52;81367.25;5107399;28;20209;-63
2023/06/23 06:10:42;;;;;;;12.80;11.90;;;;;;;-144.30;34.98;81486.38;5108977;28;20590;-63
2023/06/23 06:13:11;;;;;;;12.35;11.18;;;;;;;-144.30;35.47;81545.97;5106751;28;20198;-63
2023/06/23 06:15:39;;;;;;;12.57;11.77;;;;;;;-144.30;35.36;81619.44;5109531;28;20213;-62
2023/06/23 06:18:09;;;;;;;13.07;12.00;;;;;;;-144.30;35.78;81659.16;5107041;28;20202;-64
2023/06/23 06:20:37;;;;;;;14.38;13.07;;;;;;;-144.30;35.84;81589.66;5110353;28;20195;-64
2023/06/23 06:23:06;;;;;;;13.82;12.43;;;;;;;-144.30;35.82;81637.31;5109727;28;20205;-64
2023/06/23 06:25:35;;;;;;;14.45;12.57;;;;;;;-144.30;35.99;81571.78;5109296;28;20194;-64
2023/06/23 06:28:07;;;;;;;14.20;13.05;;;;;;;-144.30;35.63;81597.59;5109865;28;20641;-64
2023/06/23 06:30:36;;;;;;;13.75;12.30;;;;;;;-144.30;35.82;81571.78;5109555;28;20198;-64
2023/06/23 06:33:05;;;;;;;14.07;12.98;;;;;;;-144.30;36.33;81649.22;5109483;28;20190;-63
2023/06/23 06:35:34;;;;;;;13.63;12.73;;;;;;;-144.30;36.02;81603.53;5109141;28;20217;-62
2023/06/23 06:38:03;;;;;;;15.52;13.13;;;;;;;-144.30;36.15;81605.53;5109188;28;20600;-64
2023/06/23 06:40:31;;;;;;;13.75;12.57;;;;;;;-144.30;36.63;81738.56;5109816;28;20671;-64
2023/06/23 06:42:57;;;;;;;14.35;13.07;;;;;;;-144.30;36.62;81692.91;5109672;28;20200;-64
2023/06/23 06:45:24;;;;;;;16.08;13.27;;;;;;;-144.30;37.13;81806.09;5109257;28;20190;-64
2023/06/23 06:47:54;;;;;;;14.48;13.18;;;;;;;-144.30;37.33;81790.22;5107296;28;20215;-63
2023/06/23 06:50:24;;;;;;;15.02;13.57;;;;;;;-144.30;37.58;81917.31;5107743;28;20664;-64
2023/06/23 06:52:52;;;;;;;14.88;13.55;;;;;;;-144.30;37.58;81988.81;5105560;28;20209;-65
2023/06/23 06:55:21;;;;;;;13.57;12.68;;;;;;;-144.30;38.00;82082.13;5109690;28;20199;-66
2023/06/23 06:57:49;;;;;;;14.70;13.48;;;;;;;-144.30;38.11;82024.56;5109229;28;20221;-66
2023/06/23 07:00:18;;;;;;;14.05;12.82;;;;;;;-144.30;37.86;81982.84;5109256;28;20278;-65
2023/06/23 07:02:46;;;;;;;14.68;13.48;;;;;;;-144.30;37.74;81875.59;5109965;28;20198;-64
2023/06/23 07:05:13;;;;;;;15.43;14.23;;;;;;;-144.30;37.91;81913.34;5107153;28;20684;-65
2023/06/23 07:07:41;;;;;;;14.55;13.40;;;;;;;-144.30;38.30;81994.75;5109184;28;20186;-65
2023/06/23 07:10:10;;;;;;;15.40;14.13;;;;;;;-144.30;37.67;81861.69;5109102;28;20186;-64
2023/06/23 07:12:37;;;;;;;17.25;14.50;;;;;;;-144.30;37.59;81855.75;5109147;28;20694;-64
2023/06/23 07:15:06;;;;;;;14.90;13.60;;;;;;;-144.30;37.71;81839.84;5109370;28;20190;-63
2023/06/23 07:17:33;;;;;;;16.13;14.82;;;;;;;-144.30;38.27;81901.41;5108847;28;20229;-64
2023/06/23 07:20:00;;;;;;;14.75;13.38;;;;;;;-144.30;38.61;81988.81;5110201;28;20218;-64
2023/06/23 07:22:27;;;;;;;15.65;14.20;;;;;;;-144.30;38.30;81972.91;5109601;28;20577;-64
2023/06/23 07:24:56;;;;;;;18.70;13.70;;;;;;;-144.30;37.69;81816.03;5109690;28;20286;-66
2023/06/23 07:27:22;;;;;;;16.02;14.45;;;;;;;-144.30;37.04;81756.44;5109577;28;20187;-65
2023/06/23 07:29:50;;;;;;;15.45;14.15;;;;;;;-144.30;36.83;81681.00;5109216;28;20197;-64
2023/06/23 07:32:17;;;;;;;16.73;15.15;;;;;;;-144.30;37.38;81748.50;5108982;28;20341;-64
2023/06/23 07:34:43;;;;;;;16.38;14.60;;;;;;;-144.30;38.42;81945.09;5109098;28;20283;-63
2023/06/23 07:37:10;;;;;;;17.50;16.00;;;;;;;-144.30;39.92;82161.59;5105997;28;20604;-64
2023/06/23 07:39:37;;;;;;;16.50;14.95;;;;;;;-144.30;40.42;82100.00;5109116;28;20202;-63
2023/06/23 07:42:06;;;;;;;15.68;14.38;;;;;;;-144.30;39.26;82098.03;5109413;28;20197;-64
2023/06/23 07:44:33;;;;;;;14.75;13.50;;;;;;;-144.30;38.60;82022.56;5107819;28;20195;-63
2023/06/23 07:47:00;;;;;;;14.30;13.30;;;;;;;-144.30;38.08;81887.53;5109959;28;20585;-63
2023/06/23 07:49:27;;;;;;;15.80;14.05;;;;;;;-144.30;39.22;81937.16;5109600;28;20205;-63
2023/06/23 07:51:59;;;;;;;18.10;16.00;;;;;;;-144.30;37.90;81821.97;5099694;28;20219;-63
2023/06/23 07:54:26;;;;;;;15.93;14.43;;;;;;;-144.30;37.54;81774.31;5098108;28;20198;-64
2023/06/23 07:56:53;;;;;;;15.80;14.35;;;;;;;-144.30;37.29;81744.53;5105524;28;20610;-63
2023/06/23 07:59:22;;;;;;;15.55;14.43;;;;;;;-144.30;38.10;81887.53;5092273;28;20206;-63
2023/06/23 08:01:49;;;;;;;16.42;14.77;;;;;;;-144.30;38.35;81863.69;5109675;28;20251;-63
2023/06/23 08:04:16;;;;;;;15.23;13.98;;;;;;;-144.30;37.75;81825.94;5112212;28;20593;-61
2023/06/23 08:06:43;;;;;;;16.02;14.73;;;;;;;-144.30;37.05;81756.44;5112706;28;20663;-62
2023/06/23 08:09:10;;;;;;;14.45;13.23;;;;;;;-144.30;36.99;81669.06;5112515;28;20582;-63
2023/06/23 08:11:37;;;;;;;15.73;14.38;;;;;;;-144.30;35.89;81534.03;5112323;28;20230;-62
2023/06/23 08:14:03;;;;;;;15.60;14.15;;;;;;;-144.30;36.07;81571.78;5112505;28;20285;-62
2023/06/23 08:16:32;;;;;;;15.63;14.20;;;;;;;-144.30;35.88;81450.66;5112259;28;20202;-62
2023/06/23 08:18:59;;;;;;;17.25;14.05;;;;;;;-144.30;35.19;81389.09;5112353;28;20291;-62
2023/06/23 08:21:26;;;;;;;15.52;14.00;;;;;;;-144.30;35.11;81323.56;5112686;28;20633;-62
2023/06/23 08:23:52;;;;;;;15.63;14.30;;;;;;;-144.30;34.98;81406.97;5112300;28;20193;-62
2023/06/23 08:26:20;;;;;;;15.70;14.40;;;;;;;-144.30;35.29;81363.28;5112167;28;20231;-62
2023/06/23 08:28:46;;;;;;;16.23;14.65;;;;;;;-144.30;34.91;81299.72;5112550;27;20700;-63
2023/06/23 08:31:13;;;;;;;15.50;14.05;;;;;;;-144.30;34.52;81196.50;5112602;28;20592;-62
2023/06/23 08:33:42;;;;;;;16.40;14.38;;;;;;;-144.30;34.61;81236.19;5112132;28;20587;-62
2023/06/23 08:36:09;;;;;;;16.98;15.25;;;;;;;-144.30;35.13;81283.84;5112209;28;20570;-62
2023/06/23 08:38:35;;;;;;;15.38;14.02;;;;;;;-144.30;35.09;81216.34;5112083;28;20194;-62
2023/06/23 08:41:03;;;;;;;16.92;15.30;;;;;;;-144.30;36.44;81492.34;5111844;28;20198;-63
2023/06/23 08:43:31;;;;;;;19.80;14.57;;;;;;;-144.30;37.45;81593.63;5111971;28;20224;-63
2023/06/23 08:46:00;;;;;;;16.08;14.77;;;;;;;-144.30;37.32;81585.66;5112137;28;20316;-62
2023/06/23 08:48:28;;;;;;;17.08;15.57;;;;;;;-144.30;37.84;81734.59;5111956;28;20687;-63
2023/06/23 08:50:59;;;;;;;19.63;15.52;;;;;;;-144.30;37.82;81675.03;5111870;28;20205;-63
2023/06/23 08:53:27;;;;;;;16.27;14.80;;;;;;;-144.30;37.71;81712.75;5111630;28;20789;-62
2023/06/23 08:55:55;;;;;;;15.95;14.70;;;;;;;-144.30;37.98;81821.97;5112056;28;20198;-62
2023/06/23 08:58:23;;;;;;;14.88;13.73;;;;;;;-144.30;38.75;82038.44;5111549;28;20580;-62
2023/06/23 09:00:51;;;;;;;18.42;13.70;;;;;;;-144.30;38.66;82044.41;5111711;28;20233;-62
2023/06/23 09:03:18;;;;;;;21.80;14.98;;;;;;;-144.30;39.17;82111.94;5111535;28;20195;-61
2023/06/23 09:05:45;;;;;;;14.93;13.55;;;;;;;-144.30;39.51;82161.59;5111379;28;20635;-61
2023/06/23 09:08:14;;;;;;;16.30;15.05;;;;;;;-144.30;39.65;82177.47;5111038;28;20311;-62
2023/06/23 09:10:41;;;;;;;16.35;14.93;;;;;;;-144.30;40.02;82211.25;5111423;28;20201;-63
2023/06/23 09:13:23;;;;;;;15.40;14.23;;;;;;;-144.30;39.63;82153.63;5111437;28;20226;-62
2023/06/23 09:15:52;;;;;;;16.15;14.75;;;;;;;-144.30;39.11;82113.91;5111408;27;20225;-61
2023/06/23 09:18:19;;;;;;;15.10;13.75;;;;;;;-144.30;39.39;82016.59;5104061;28;20225;-62
2023/06/23 09:20:48;;;;;;;14.63;13.55;;;;;;;-144.30;38.76;82012.63;5110675;28;20191;-62
2023/06/23 09:23:17;;;;;;;13.80;12.90;;;;;;;-144.30;38.14;82012.63;5111122;28;20195;-62
2023/06/23 09:25:47;;;;;;;14.48;13.48;;;;;;;-144.30;38.61;82090.09;5109262;28;20298;-61
2023/06/23 09:28:28;;;;;;;13.43;12.05;;;;;;;-144.30;38.77;82074.19;5111202;28;20205;-63
2023/06/23 09:30:56;;;;;;;13.70;12.75;;;;;;;-144.30;39.08;82104.00;5108656;28;20285;-61
2023/06/23 09:33:23;;;;;;;13.32;12.30;;;;;;;-144.30;39.15;82064.28;5105478;28;20741;-60
2023/06/23 09:35:52;;;;;;;14.13;12.93;;;;;;;-144.30;38.61;82050.38;5110662;28;20648;-62
2023/06/23 09:38:22;;;;;;;14.38;12.98;;;;;;;-144.30;38.48;82090.09;5107532;28;20677;-61
2023/06/23 09:41:01;;;;;;;13.30;12.15;;;;;;;-144.30;38.33;81982.84;5110311;28;20199;-63
2023/06/23 09:43:28;;;;;;;13.00;11.95;;;;;;;-144.30;37.98;82096.03;5108401;28;20244;-61
2023/06/23 09:45:55;;;;;;;12.90;11.65;;;;;;;-144.30;37.63;82042.41;5110173;28;20289;-61
2023/06/23 09:48:22;;;;;;;14.82;13.38;;;;;;;-144.30;38.12;82062.28;5110048;28;20201;-63
2023/06/23 09:51:01;;;;;;;13.77;12.70;;;;;;;-144.30;38.71;82048.38;5110053;28;20199;-63
2023/06/23 09:53:32;;;;;;;14.35;13.00;;;;;;;-144.30;39.05;82123.84;5110290;28;20222;-62
2023/06/23 09:55:59;;;;;;;13.80;12.38;;;;;;;-144.30;38.50;81955.03;5110422;28;20194;-61
2023/06/23 09:58:31;;;;;;;12.95;11.93;;;;;;;-144.30;38.45;81988.81;5110533;28;20198;-61
2023/06/23 10:01:02;;;;;;;14.32;13.23;;;;;;;-144.30;38.13;81972.91;5110561;28;20734;-62
2023/06/23 10:03:30;;;;;;;14.43;12.85;;;;;;;-144.30;38.09;82002.69;5109892;28;20202;-63
2023/06/23 10:05:58;;;;;;;14.18;12.90;;;;;;;-144.30;37.78;81955.03;5110545;28;20664;-64
2023/06/23 10:08:26;;;;;;;13.25;12.32;;;;;;;-144.30;38.49;82000.72;5110023;28;20683;-62
2023/06/23 10:10:54;;;;;;;12.43;11.63;;;;;;;-144.30;38.40;82038.44;5109103;28;20203;-59
2023/06/23 10:13:22;;;;;;;13.70;12.65;;;;;;;-144.30;39.00;82177.47;5109526;28;20217;-61
2023/06/23 10:15:50;;;;;;;13.15;11.93;;;;;;;-144.30;39.14;82199.31;5109921;28;20669;-64
2023/06/23 10:18:17;;;;;;;13.20;12.30;;;;;;;-144.30;39.99;82246.97;5109771;28;20204;-63
2023/06/23 10:20:45;;;;;;;13.38;12.07;;;;;;;-144.30;39.64;82227.13;5109045;28;20190;-62
2023/06/23 10:23:14;;;;;;;14.15;13.00;;;;;;;-144.30;39.61;82189.38;5109389;28;20217;-61
2023/06/23 10:25:41;;;;;;;13.75;12.68;;;;;;;-144.30;40.53;82304.59;5106543;28;20191;-62
2023/06/23 10:28:12;;;;;;;12.77;11.88;;;;;;;-144.30;40.86;82312.53;5109459;28;20213;-64
2023/06/23 10:30:41;;;;;;;13.02;11.82;;;;;;;-144.30;40.39;82326.44;5106324;28;20670;-63
2023/06/23 10:33:15;;;;;;;14.27;12.02;;;;;;;-144.30;40.12;82411.84;5105775;28;20222;-64
2023/06/23 10:35:42;;;;;;;12.57;11.55;;;;;;;-144.30;40.68;82384.03;5107437;28;20191;-64
2023/06/23 10:38:13;;;;;;;13.43;12.30;;;;;;;-144.30;40.67;82360.19;5109864;28;20723;-64
2023/06/23 10:40:44;;;;;;;11.70;11.00;;;;;;;-144.30;39.24;82344.31;5109554;28;20706;-63
2023/06/23 10:43:13;;;;;;;12.27;11.48;;;;;;;-144.30;39.26;82415.81;5108417;28;20203;-64
2023/06/23 10:45:41;;;;;;;13.43;12.23;;;;;;;-144.30;40.76;82465.47;5102728;28;20210;-65
2023/06/23 10:48:08;;;;;;;12.65;11.57;;;;;;;-144.30;40.38;82413.81;5089209;28;20209;-65
2023/06/23 10:50:38;;;;;;;12.20;11.30;;;;;;;-144.30;40.19;82445.59;5089403;28;20199;-65
2023/06/23 10:53:15;;;;;;;13.52;10.98;;;;;;;-144.30;39.34;82487.31;5089372;28;20218;-64
2023/06/23 10:55:43;;;;;;;11.35;10.55;;;;;;;-144.30;39.27;82536.97;5089053;28;20202;-64
2023/06/23 10:58:17;;;;;;;11.38;10.35;;;;;;;-144.30;39.56;82535.00;5099439;28;20198;-64
2023/06/23 11:00:59;;;;;;;12.45;11.48;;;;;;;-144.30;39.84;82558.81;5106075;28;20254;-65
2023/06/23 11:03:28;;;;;;;12.32;11.63;;;;;;;-144.30;40.33;82550.88;5108064;28;20191;-64
2023/06/23 11:05:56;;;;;;;11.35;10.50;;;;;;;-144.30;39.92;82576.69;5108868;28;20195;-65
2023/06/23 11:08:32;;;;;;;11.23;10.52;;;;;;;-144.30;39.05;82578.69;5108960;28;20587;-65
2023/06/23 11:11:04;;;;;;;11.20;10.30;;;;;;;-144.30;37.85;82529.03;5104328;28;20194;-64